KRKD/RKD METAR and TAF weather

Enter ICAO airport designator
Station Type Date Time Source
KRKD METAR 2021/08/05 04:56 UTC NOAA

KRKD 050456Z AUTO 00000KT 10SM OVC100 17/17 A3023 RMK AO2 RAE05B27E40 SLP237 P0000 T01670167 402440133


Station Type Date Time Source
KRKD Decoded METAR 2021/08/05 04:56 UTC NOAA

Rockland, Knox County Regional Airport, ME, United States (KRKD) 44-04N 069-06W
Aug 05, 2021 - 12:56 AM EDT / 2021.08.05 0456 UTC
Wind: Calm:0
Visibility: 10 mile(s):0
Sky conditions: overcast
Precipitation last hour: A trace
Temperature: 62.1 F (16.7 C)
Dew Point: 62.1 F (16.7 C)
Relative Humidity: 100%
Pressure (altimeter): 30.23 in. Hg (1023 hPa)
ob: KRKD 050456Z AUTO 00000KT 10SM OVC100 17/17 A3023 RMK AO2 RAE05B27E40 SLP237 P0000 T01670167 402440133
cycle: 5

Station Type Date Time Source
KRKD TAF 2021/08/05 06:22 UTC NOAA

TAF KRKD 050520Z 0506/0606 VRB04KT 5SM -SHRA BR OVC120
FM050900 VRB04KT 1 1/2SM -SHRA BR OVC003 WS020/20030KT
FM052100 VRB04KT 1/2SM -SHRA FG OVC003 WS020/18035KT
FM060500 VRB03KT 3/4SM BR OVC003

Example: see airport list